sensor_id;sensor_type;location;lat;lon;timestamp;P1;durP1;ratioP1;P2;durP2;ratioP2
15635;SDS011;7917;50.818;6.972;2022-08-03T00:01:10;3.58;;;2.88;;
15635;SDS011;7917;50.818;6.972;2022-08-03T00:03:41;4.35;;;2.90;;
15635;SDS011;7917;50.818;6.972;2022-08-03T00:06:08;7.55;;;3.20;;
15635;SDS011;7917;50.818;6.972;2022-08-03T00:08:36;4.65;;;3.20;;
15635;SDS011;7917;50.818;6.972;2022-08-03T00:11:04;6.05;;;3.13;;
15635;SDS011;7917;50.818;6.972;2022-08-03T00:13:31;3.30;;;2.97;;
15635;SDS011;7917;50.818;6.972;2022-08-03T00:15:58;4.30;;;3.53;;
15635;SDS011;7917;50.818;6.972;2022-08-03T00:18:26;7.47;;;3.03;;
15635;SDS011;7917;50.818;6.972;2022-08-03T00:20:53;6.50;;;3.22;;
15635;SDS011;7917;50.818;6.972;2022-08-03T00:23:20;5.70;;;3.40;;
15635;SDS011;7917;50.818;6.972;2022-08-03T00:25:49;3.72;;;2.75;;
15635;SDS011;7917;50.818;6.972;2022-08-03T00:28:16;5.80;;;2.92;;
15635;SDS011;7917;50.818;6.972;2022-08-03T00:30:43;3.70;;;3.40;;
15635;SDS011;7917;50.818;6.972;2022-08-03T00:33:11;4.28;;;3.33;;
15635;SDS011;7917;50.818;6.972;2022-08-03T00:35:38;5.03;;;2.90;;
15635;SDS011;7917;50.818;6.972;2022-08-03T00:38:05;5.53;;;3.05;;
15635;SDS011;7917;50.818;6.972;2022-08-03T00:40:33;3.85;;;3.20;;
15635;SDS011;7917;50.818;6.972;2022-08-03T00:43:02;3.45;;;2.90;;
15635;SDS011;7917;50.818;6.972;2022-08-03T00:45:32;4.35;;;3.33;;
15635;SDS011;7917;50.818;6.972;2022-08-03T00:48:00;4.50;;;3.47;;
15635;SDS011;7917;50.818;6.972;2022-08-03T00:50:28;4.72;;;3.13;;
15635;SDS011;7917;50.818;6.972;2022-08-03T00:52:59;9.95;;;3.38;;
15635;SDS011;7917;50.818;6.972;2022-08-03T00:55:28;8.98;;;3.28;;
15635;SDS011;7917;50.818;6.972;2022-08-03T00:57:56;4.00;;;3.20;;
15635;SDS011;7917;50.818;6.972;2022-08-03T01:00:26;6.35;;;3.40;;
15635;SDS011;7917;50.818;6.972;2022-08-03T01:02:57;6.32;;;3.33;;
15635;SDS011;7917;50.818;6.972;2022-08-03T01:05:24;5.90;;;3.22;;
15635;SDS011;7917;50.818;6.972;2022-08-03T01:07:59;4.85;;;3.35;;
15635;SDS011;7917;50.818;6.972;2022-08-03T01:10:41;3.55;;;3.25;;
15635;SDS011;7917;50.818;6.972;2022-08-03T01:13:20;4.75;;;3.40;;
15635;SDS011;7917;50.818;6.972;2022-08-03T01:15:56;7.00;;;3.53;;
15635;SDS011;7917;50.818;6.972;2022-08-03T01:18:30;6.18;;;3.28;;
15635;SDS011;7917;50.818;6.972;2022-08-03T01:21:03;4.43;;;3.25;;
15635;SDS011;7917;50.818;6.972;2022-08-03T01:23:50;5.45;;;3.55;;
15635;SDS011;7917;50.818;6.972;2022-08-03T01:26:41;4.85;;;3.08;;
15635;SDS011;7917;50.818;6.972;2022-08-03T01:29:30;9.32;;;3.40;;
15635;SDS011;7917;50.818;6.972;2022-08-03T01:32:17;5.72;;;3.70;;
15635;SDS011;7917;50.818;6.972;2022-08-03T01:34:49;5.93;;;3.22;;
15635;SDS011;7917;50.818;6.972;2022-08-03T01:37:24;3.88;;;3.47;;
15635;SDS011;7917;50.818;6.972;2022-08-03T01:39:57;4.22;;;3.42;;
15635;SDS011;7917;50.818;6.972;2022-08-03T01:42:28;5.10;;;3.28;;
15635;SDS011;7917;50.818;6.972;2022-08-03T01:44:59;5.05;;;4.18;;
15635;SDS011;7917;50.818;6.972;2022-08-03T01:47:27;5.43;;;3.67;;
15635;SDS011;7917;50.818;6.972;2022-08-03T01:49:55;4.75;;;3.30;;
15635;SDS011;7917;50.818;6.972;2022-08-03T01:52:24;4.18;;;3.22;;
15635;SDS011;7917;50.818;6.972;2022-08-03T01:54:52;6.43;;;3.40;;
15635;SDS011;7917;50.818;6.972;2022-08-03T01:57:22;5.75;;;3.92;;
15635;SDS011;7917;50.818;6.972;2022-08-03T01:59:50;5.43;;;3.53;;
15635;SDS011;7917;50.818;6.972;2022-08-03T02:02:20;4.15;;;3.30;;
15635;SDS011;7917;50.818;6.972;2022-08-03T02:04:49;5.80;;;3.22;;
15635;SDS011;7917;50.818;6.972;2022-08-03T02:07:19;5.72;;;3.80;;
15635;SDS011;7917;50.818;6.972;2022-08-03T02:09:48;6.40;;;3.78;;
15635;SDS011;7917;50.818;6.972;2022-08-03T02:12:18;4.68;;;3.60;;
15635;SDS011;7917;50.818;6.972;2022-08-03T02:14:47;5.55;;;3.95;;
15635;SDS011;7917;50.818;6.972;2022-08-03T02:17:15;6.20;;;3.92;;
15635;SDS011;7917;50.818;6.972;2022-08-03T02:19:46;8.07;;;4.10;;
15635;SDS011;7917;50.818;6.972;2022-08-03T02:22:16;4.10;;;3.58;;
15635;SDS011;7917;50.818;6.972;2022-08-03T02:24:46;4.38;;;3.45;;
15635;SDS011;7917;50.818;6.972;2022-08-03T02:27:16;6.53;;;3.90;;
15635;SDS011;7917;50.818;6.972;2022-08-03T02:29:47;3.75;;;3.30;;
15635;SDS011;7917;50.818;6.972;2022-08-03T02:32:21;5.68;;;3.90;;
15635;SDS011;7917;50.818;6.972;2022-08-03T02:34:57;6.75;;;3.95;;
15635;SDS011;7917;50.818;6.972;2022-08-03T02:37:26;4.75;;;3.58;;
15635;SDS011;7917;50.818;6.972;2022-08-03T02:39:59;5.53;;;3.58;;
15635;SDS011;7917;50.818;6.972;2022-08-03T02:42:28;5.75;;;4.18;;
15635;SDS011;7917;50.818;6.972;2022-08-03T02:44:57;5.63;;;3.90;;
15635;SDS011;7917;50.818;6.972;2022-08-03T02:47:28;4.30;;;3.90;;
15635;SDS011;7917;50.818;6.972;2022-08-03T02:50:09;5.72;;;4.13;;
15635;SDS011;7917;50.818;6.972;2022-08-03T02:52:43;4.95;;;4.28;;
15635;SDS011;7917;50.818;6.972;2022-08-03T02:55:14;4.25;;;3.80;;
15635;SDS011;7917;50.818;6.972;2022-08-03T02:57:50;8.48;;;4.00;;
15635;SDS011;7917;50.818;6.972;2022-08-03T03:00:23;8.13;;;4.30;;
15635;SDS011;7917;50.818;6.972;2022-08-03T03:02:51;6.43;;;4.00;;
15635;SDS011;7917;50.818;6.972;2022-08-03T03:05:21;4.85;;;4.10;;
15635;SDS011;7917;50.818;6.972;2022-08-03T03:07:49;4.32;;;3.92;;
15635;SDS011;7917;50.818;6.972;2022-08-03T03:10:16;5.13;;;4.22;;
15635;SDS011;7917;50.818;6.972;2022-08-03T03:12:45;4.32;;;3.92;;
15635;SDS011;7917;50.818;6.972;2022-08-03T03:15:16;9.20;;;4.68;;
15635;SDS011;7917;50.818;6.972;2022-08-03T03:17:44;6.22;;;3.72;;
15635;SDS011;7917;50.818;6.972;2022-08-03T03:20:13;4.05;;;3.65;;
15635;SDS011;7917;50.818;6.972;2022-08-03T03:22:43;4.38;;;3.47;;
15635;SDS011;7917;50.818;6.972;2022-08-03T03:25:13;4.65;;;3.80;;
15635;SDS011;7917;50.818;6.972;2022-08-03T03:27:41;5.15;;;3.72;;
15635;SDS011;7917;50.818;6.972;2022-08-03T03:30:09;5.38;;;4.35;;
15635;SDS011;7917;50.818;6.972;2022-08-03T03:32:36;5.65;;;4.13;;
15635;SDS011;7917;50.818;6.972;2022-08-03T03:35:05;5.10;;;4.22;;
15635;SDS011;7917;50.818;6.972;2022-08-03T03:37:34;6.25;;;4.75;;
15635;SDS011;7917;50.818;6.972;2022-08-03T03:40:04;4.88;;;4.15;;
15635;SDS011;7917;50.818;6.972;2022-08-03T03:42:33;5.10;;;3.92;;
15635;SDS011;7917;50.818;6.972;2022-08-03T03:45:02;5.13;;;3.97;;
15635;SDS011;7917;50.818;6.972;2022-08-03T03:47:29;9.27;;;4.25;;
15635;SDS011;7917;50.818;6.972;2022-08-03T03:49:57;6.35;;;4.88;;
15635;SDS011;7917;50.818;6.972;2022-08-03T03:52:24;4.75;;;3.95;;
15635;SDS011;7917;50.818;6.972;2022-08-03T03:54:52;8.13;;;4.40;;
15635;SDS011;7917;50.818;6.972;2022-08-03T03:57:21;4.95;;;4.05;;
15635;SDS011;7917;50.818;6.972;2022-08-03T03:59:48;4.43;;;4.03;;
15635;SDS011;7917;50.818;6.972;2022-08-03T04:02:16;6.72;;;4.25;;
15635;SDS011;7917;50.818;6.972;2022-08-03T04:04:43;4.18;;;3.72;;
15635;SDS011;7917;50.818;6.972;2022-08-03T04:07:27;5.70;;;4.28;;
15635;SDS011;7917;50.818;6.972;2022-08-03T04:10:21;7.63;;;4.32;;
15635;SDS011;7917;50.818;6.972;2022-08-03T04:13:09;6.75;;;4.38;;
15635;SDS011;7917;50.818;6.972;2022-08-03T04:15:38;8.15;;;4.35;;
15635;SDS011;7917;50.818;6.972;2022-08-03T04:18:07;5.05;;;4.28;;
15635;SDS011;7917;50.818;6.972;2022-08-03T04:20:37;6.25;;;4.72;;
15635;SDS011;7917;50.818;6.972;2022-08-03T04:23:09;4.90;;;3.88;;
15635;SDS011;7917;50.818;6.972;2022-08-03T04:25:38;5.05;;;4.43;;
15635;SDS011;7917;50.818;6.972;2022-08-03T04:28:07;6.00;;;4.90;;
15635;SDS011;7917;50.818;6.972;2022-08-03T04:30:37;5.68;;;4.97;;
15635;SDS011;7917;50.818;6.972;2022-08-03T04:33:11;6.20;;;4.07;;
15635;SDS011;7917;50.818;6.972;2022-08-03T04:35:40;4.65;;;4.10;;
15635;SDS011;7917;50.818;6.972;2022-08-03T04:38:11;6.00;;;4.45;;
15635;SDS011;7917;50.818;6.972;2022-08-03T04:40:41;4.72;;;4.22;;
15635;SDS011;7917;50.818;6.972;2022-08-03T04:43:13;7.43;;;4.25;;
15635;SDS011;7917;50.818;6.972;2022-08-03T04:45:44;6.25;;;4.10;;
15635;SDS011;7917;50.818;6.972;2022-08-03T04:48:13;5.43;;;4.00;;
15635;SDS011;7917;50.818;6.972;2022-08-03T04:50:40;7.80;;;4.50;;
15635;SDS011;7917;50.818;6.972;2022-08-03T04:53:09;5.40;;;4.28;;
15635;SDS011;7917;50.818;6.972;2022-08-03T04:55:36;5.15;;;4.38;;
15635;SDS011;7917;50.818;6.972;2022-08-03T04:58:03;3.97;;;3.63;;
15635;SDS011;7917;50.818;6.972;2022-08-03T05:00:32;5.82;;;4.47;;
15635;SDS011;7917;50.818;6.972;2022-08-03T05:02:59;4.63;;;3.80;;
15635;SDS011;7917;50.818;6.972;2022-08-03T05:05:26;5.00;;;4.43;;
15635;SDS011;7917;50.818;6.972;2022-08-03T05:07:53;5.25;;;3.90;;
15635;SDS011;7917;50.818;6.972;2022-08-03T05:10:20;4.45;;;4.00;;
15635;SDS011;7917;50.818;6.972;2022-08-03T05:12:47;5.82;;;3.63;;
15635;SDS011;7917;50.818;6.972;2022-08-03T05:15:16;4.35;;;3.90;;
15635;SDS011;7917;50.818;6.972;2022-08-03T05:17:44;5.78;;;4.05;;
15635;SDS011;7917;50.818;6.972;2022-08-03T05:20:12;5.40;;;4.18;;
15635;SDS011;7917;50.818;6.972;2022-08-03T05:22:43;5.85;;;4.20;;
15635;SDS011;7917;50.818;6.972;2022-08-03T05:25:10;6.13;;;3.33;;
15635;SDS011;7917;50.818;6.972;2022-08-03T05:27:37;5.80;;;4.15;;
15635;SDS011;7917;50.818;6.972;2022-08-03T05:30:06;5.18;;;4.07;;
15635;SDS011;7917;50.818;6.972;2022-08-03T05:32:35;6.32;;;4.20;;
15635;SDS011;7917;50.818;6.972;2022-08-03T05:35:04;7.88;;;3.30;;
15635;SDS011;7917;50.818;6.972;2022-08-03T05:37:33;5.72;;;4.00;;
15635;SDS011;7917;50.818;6.972;2022-08-03T05:40:00;3.67;;;3.30;;
15635;SDS011;7917;50.818;6.972;2022-08-03T05:42:27;6.55;;;3.95;;
15635;SDS011;7917;50.818;6.972;2022-08-03T05:44:54;4.90;;;3.42;;
15635;SDS011;7917;50.818;6.972;2022-08-03T05:47:21;9.73;;;3.83;;
15635;SDS011;7917;50.818;6.972;2022-08-03T05:49:49;3.72;;;3.35;;
15635;SDS011;7917;50.818;6.972;2022-08-03T05:52:17;3.28;;;2.85;;
15635;SDS011;7917;50.818;6.972;2022-08-03T05:54:45;5.25;;;3.63;;
15635;SDS011;7917;50.818;6.972;2022-08-03T05:57:12;4.30;;;3.22;;
15635;SDS011;7917;50.818;6.972;2022-08-03T05:59:39;6.05;;;3.75;;
15635;SDS011;7917;50.818;6.972;2022-08-03T06:02:06;5.13;;;3.40;;
15635;SDS011;7917;50.818;6.972;2022-08-03T06:04:34;9.75;;;3.67;;
15635;SDS011;7917;50.818;6.972;2022-08-03T06:07:02;8.60;;;3.55;;
15635;SDS011;7917;50.818;6.972;2022-08-03T06:09:31;6.53;;;3.83;;
15635;SDS011;7917;50.818;6.972;2022-08-03T06:11:59;5.18;;;3.45;;
15635;SDS011;7917;50.818;6.972;2022-08-03T06:14:26;3.75;;;3.28;;
15635;SDS011;7917;50.818;6.972;2022-08-03T06:16:54;4.22;;;3.63;;
15635;SDS011;7917;50.818;6.972;2022-08-03T06:19:21;7.40;;;2.90;;
15635;SDS011;7917;50.818;6.972;2022-08-03T06:21:49;6.32;;;3.63;;
15635;SDS011;7917;50.818;6.972;2022-08-03T06:24:17;8.60;;;3.60;;
15635;SDS011;7917;50.818;6.972;2022-08-03T06:26:46;6.15;;;3.33;;
15635;SDS011;7917;50.818;6.972;2022-08-03T06:29:13;6.55;;;3.75;;
15635;SDS011;7917;50.818;6.972;2022-08-03T06:31:40;3.67;;;3.00;;
15635;SDS011;7917;50.818;6.972;2022-08-03T06:34:07;5.43;;;3.65;;
15635;SDS011;7917;50.818;6.972;2022-08-03T06:36:35;8.88;;;3.28;;
15635;SDS011;7917;50.818;6.972;2022-08-03T06:39:03;4.28;;;3.10;;
15635;SDS011;7917;50.818;6.972;2022-08-03T06:41:30;8.95;;;3.70;;
15635;SDS011;7917;50.818;6.972;2022-08-03T06:44:00;3.80;;;3.40;;
15635;SDS011;7917;50.818;6.972;2022-08-03T06:46:28;5.18;;;3.00;;
15635;SDS011;7917;50.818;6.972;2022-08-03T06:48:55;8.30;;;3.08;;
15635;SDS011;7917;50.818;6.972;2022-08-03T06:51:23;5.13;;;3.35;;
15635;SDS011;7917;50.818;6.972;2022-08-03T06:53:50;5.32;;;3.45;;
15635;SDS011;7917;50.818;6.972;2022-08-03T06:56:20;5.07;;;3.38;;
15635;SDS011;7917;50.818;6.972;2022-08-03T06:58:48;5.32;;;2.67;;
15635;SDS011;7917;50.818;6.972;2022-08-03T07:01:17;5.30;;;3.22;;
15635;SDS011;7917;50.818;6.972;2022-08-03T07:03:44;6.93;;;2.63;;
15635;SDS011;7917;50.818;6.972;2022-08-03T07:06:12;4.65;;;3.22;;
15635;SDS011;7917;50.818;6.972;2022-08-03T07:08:39;4.43;;;2.80;;
15635;SDS011;7917;50.818;6.972;2022-08-03T07:11:07;6.65;;;2.80;;
15635;SDS011;7917;50.818;6.972;2022-08-03T07:13:35;6.78;;;2.60;;
15635;SDS011;7917;50.818;6.972;2022-08-03T07:16:02;3.53;;;2.72;;
15635;SDS011;7917;50.818;6.972;2022-08-03T07:18:31;5.65;;;2.50;;
15635;SDS011;7917;50.818;6.972;2022-08-03T07:20:58;4.53;;;2.50;;
15635;SDS011;7917;50.818;6.972;2022-08-03T07:23:26;2.45;;;2.25;;
15635;SDS011;7917;50.818;6.972;2022-08-03T07:25:53;6.25;;;2.60;;
15635;SDS011;7917;50.818;6.972;2022-08-03T07:28:21;2.80;;;2.30;;
15635;SDS011;7917;50.818;6.972;2022-08-03T07:30:48;6.38;;;2.33;;
15635;SDS011;7917;50.818;6.972;2022-08-03T07:33:15;5.13;;;2.65;;
15635;SDS011;7917;50.818;6.972;2022-08-03T07:35:44;2.75;;;2.40;;
15635;SDS011;7917;50.818;6.972;2022-08-03T07:38:11;6.50;;;2.45;;
15635;SDS011;7917;50.818;6.972;2022-08-03T07:40:39;7.68;;;2.50;;
15635;SDS011;7917;50.818;6.972;2022-08-03T07:43:06;5.70;;;2.70;;
15635;SDS011;7917;50.818;6.972;2022-08-03T07:45:33;5.03;;;2.63;;
15635;SDS011;7917;50.818;6.972;2022-08-03T07:48:00;3.55;;;2.50;;
15635;SDS011;7917;50.818;6.972;2022-08-03T07:50:27;4.15;;;2.35;;
15635;SDS011;7917;50.818;6.972;2022-08-03T07:52:56;4.22;;;2.15;;
15635;SDS011;7917;50.818;6.972;2022-08-03T07:55:24;3.33;;;2.50;;
15635;SDS011;7917;50.818;6.972;2022-08-03T07:57:58;7.15;;;2.63;;
15635;SDS011;7917;50.818;6.972;2022-08-03T08:00:28;3.55;;;2.53;;
15635;SDS011;7917;50.818;6.972;2022-08-03T08:02:56;5.35;;;2.65;;
15635;SDS011;7917;50.818;6.972;2022-08-03T08:05:23;8.23;;;2.60;;
15635;SDS011;7917;50.818;6.972;2022-08-03T08:07:51;3.92;;;2.50;;
15635;SDS011;7917;50.818;6.972;2022-08-03T08:10:20;7.25;;;2.60;;
15635;SDS011;7917;50.818;6.972;2022-08-03T08:12:47;5.03;;;2.50;;
15635;SDS011;7917;50.818;6.972;2022-08-03T08:15:15;6.18;;;2.70;;
15635;SDS011;7917;50.818;6.972;2022-08-03T08:17:43;6.47;;;2.45;;
15635;SDS011;7917;50.818;6.972;2022-08-03T08:20:14;4.72;;;2.53;;
15635;SDS011;7917;50.818;6.972;2022-08-03T08:22:42;5.53;;;2.40;;
15635;SDS011;7917;50.818;6.972;2022-08-03T08:25:09;4.43;;;2.10;;
15635;SDS011;7917;50.818;6.972;2022-08-03T08:27:42;3.88;;;2.05;;
15635;SDS011;7917;50.818;6.972;2022-08-03T08:30:11;3.58;;;2.70;;
15635;SDS011;7917;50.818;6.972;2022-08-03T08:32:40;5.38;;;2.58;;
15635;SDS011;7917;50.818;6.972;2022-08-03T08:35:08;4.65;;;2.42;;
15635;SDS011;7917;50.818;6.972;2022-08-03T08:37:36;3.88;;;2.50;;
15635;SDS011;7917;50.818;6.972;2022-08-03T08:40:05;7.68;;;2.35;;
15635;SDS011;7917;50.818;6.972;2022-08-03T08:42:33;4.88;;;2.00;;
15635;SDS011;7917;50.818;6.972;2022-08-03T08:45:04;2.78;;;2.30;;
15635;SDS011;7917;50.818;6.972;2022-08-03T08:47:33;5.65;;;2.88;;
15635;SDS011;7917;50.818;6.972;2022-08-03T08:50:03;6.25;;;2.28;;
15635;SDS011;7917;50.818;6.972;2022-08-03T08:52:32;3.30;;;1.98;;
15635;SDS011;7917;50.818;6.972;2022-08-03T08:55:01;2.58;;;2.08;;
15635;SDS011;7917;50.818;6.972;2022-08-03T08:57:30;3.88;;;2.22;;
15635;SDS011;7917;50.818;6.972;2022-08-03T09:00:03;4.80;;;1.88;;
15635;SDS011;7917;50.818;6.972;2022-08-03T09:02:35;4.28;;;1.85;;
15635;SDS011;7917;50.818;6.972;2022-08-03T09:05:03;3.15;;;1.98;;
15635;SDS011;7917;50.818;6.972;2022-08-03T09:07:31;5.00;;;2.00;;
15635;SDS011;7917;50.818;6.972;2022-08-03T09:09:58;4.15;;;2.10;;
15635;SDS011;7917;50.818;6.972;2022-08-03T09:12:26;2.97;;;2.08;;
15635;SDS011;7917;50.818;6.972;2022-08-03T09:14:54;7.43;;;2.40;;
15635;SDS011;7917;50.818;6.972;2022-08-03T09:17:22;5.70;;;2.22;;
15635;SDS011;7917;50.818;6.972;2022-08-03T09:20:03;4.32;;;2.33;;
15635;SDS011;7917;50.818;6.972;2022-08-03T09:22:32;2.72;;;2.10;;
15635;SDS011;7917;50.818;6.972;2022-08-03T09:25:01;4.63;;;2.00;;
15635;SDS011;7917;50.818;6.972;2022-08-03T09:27:40;4.78;;;2.60;;
15635;SDS011;7917;50.818;6.972;2022-08-03T09:30:11;4.57;;;2.15;;
15635;SDS011;7917;50.818;6.972;2022-08-03T09:32:41;2.70;;;1.92;;
15635;SDS011;7917;50.818;6.972;2022-08-03T09:35:10;6.55;;;2.20;;
15635;SDS011;7917;50.818;6.972;2022-08-03T09:37:39;5.40;;;2.30;;
15635;SDS011;7917;50.818;6.972;2022-08-03T09:40:07;3.75;;;2.15;;
15635;SDS011;7917;50.818;6.972;2022-08-03T09:42:35;7.45;;;1.92;;
15635;SDS011;7917;50.818;6.972;2022-08-03T09:45:03;5.97;;;2.00;;
15635;SDS011;7917;50.818;6.972;2022-08-03T09:47:32;8.20;;;2.20;;
15635;SDS011;7917;50.818;6.972;2022-08-03T09:50:03;7.25;;;2.30;;
15635;SDS011;7917;50.818;6.972;2022-08-03T09:52:33;4.78;;;2.10;;
15635;SDS011;7917;50.818;6.972;2022-08-03T09:55:02;6.15;;;2.20;;
15635;SDS011;7917;50.818;6.972;2022-08-03T09:57:34;4.15;;;2.63;;
15635;SDS011;7917;50.818;6.972;2022-08-03T10:00:05;5.38;;;2.17;;
15635;SDS011;7917;50.818;6.972;2022-08-03T10:02:36;8.35;;;2.13;;
15635;SDS011;7917;50.818;6.972;2022-08-03T10:05:08;9.02;;;1.98;;
15635;SDS011;7917;50.818;6.972;2022-08-03T10:07:44;3.78;;;2.00;;
15635;SDS011;7917;50.818;6.972;2022-08-03T10:10:12;5.72;;;2.03;;
15635;SDS011;7917;50.818;6.972;2022-08-03T10:12:40;5.82;;;2.05;;
15635;SDS011;7917;50.818;6.972;2022-08-03T10:15:09;10.00;;;2.50;;
15635;SDS011;7917;50.818;6.972;2022-08-03T10:17:36;4.47;;;1.85;;
15635;SDS011;7917;50.818;6.972;2022-08-03T10:20:08;4.43;;;1.80;;
15635;SDS011;7917;50.818;6.972;2022-08-03T10:22:36;5.72;;;1.83;;
15635;SDS011;7917;50.818;6.972;2022-08-03T10:25:07;3.75;;;1.90;;
15635;SDS011;7917;50.818;6.972;2022-08-03T10:27:38;4.60;;;1.55;;
15635;SDS011;7917;50.818;6.972;2022-08-03T10:30:09;2.20;;;1.48;;
15635;SDS011;7917;50.818;6.972;2022-08-03T10:32:39;10.20;;;1.58;;
15635;SDS011;7917;50.818;6.972;2022-08-03T10:35:14;3.33;;;1.60;;
15635;SDS011;7917;50.818;6.972;2022-08-03T10:37:50;3.75;;;1.95;;
15635;SDS011;7917;50.818;6.972;2022-08-03T10:40:26;3.72;;;1.65;;
15635;SDS011;7917;50.818;6.972;2022-08-03T10:42:58;2.55;;;1.63;;
15635;SDS011;7917;50.818;6.972;2022-08-03T10:45:32;3.53;;;1.90;;
15635;SDS011;7917;50.818;6.972;2022-08-03T10:48:03;6.68;;;1.95;;
15635;SDS011;7917;50.818;6.972;2022-08-03T10:50:36;4.35;;;2.22;;
15635;SDS011;7917;50.818;6.972;2022-08-03T10:53:05;2.88;;;1.90;;
15635;SDS011;7917;50.818;6.972;2022-08-03T10:55:33;4.90;;;1.63;;
15635;SDS011;7917;50.818;6.972;2022-08-03T11:01:15;3.22;;;1.75;;
15635;SDS011;7917;50.818;6.972;2022-08-03T11:06:44;4.95;;;2.25;;
15635;SDS011;7917;50.818;6.972;2022-08-03T11:09:18;3.13;;;1.35;;
15635;SDS011;7917;50.818;6.972;2022-08-03T11:11:46;3.53;;;1.70;;
15635;SDS011;7917;50.818;6.972;2022-08-03T11:14:16;4.15;;;1.70;;
15635;SDS011;7917;50.818;6.972;2022-08-03T11:16:46;3.70;;;1.65;;
15635;SDS011;7917;50.818;6.972;2022-08-03T11:19:15;3.65;;;1.50;;
15635;SDS011;7917;50.818;6.972;2022-08-03T11:21:57;3.97;;;1.98;;
15635;SDS011;7917;50.818;6.972;2022-08-03T11:27:23;3.00;;;1.50;;
15635;SDS011;7917;50.818;6.972;2022-08-03T11:29:55;4.68;;;1.65;;
15635;SDS011;7917;50.818;6.972;2022-08-03T11:35:26;3.10;;;1.17;;
15635;SDS011;7917;50.818;6.972;2022-08-03T11:38:03;4.60;;;1.70;;
15635;SDS011;7917;50.818;6.972;2022-08-03T11:40:32;4.68;;;1.50;;
15635;SDS011;7917;50.818;6.972;2022-08-03T11:43:00;7.43;;;1.67;;
15635;SDS011;7917;50.818;6.972;2022-08-03T11:45:28;24.25;;;2.78;;
15635;SDS011;7917;50.818;6.972;2022-08-03T11:47:56;8.80;;;1.45;;
15635;SDS011;7917;50.818;6.972;2022-08-03T11:50:34;7.72;;;1.75;;
15635;SDS011;7917;50.818;6.972;2022-08-03T11:53:04;3.58;;;1.67;;
15635;SDS011;7917;50.818;6.972;2022-08-03T11:55:32;33.25;;;3.10;;
15635;SDS011;7917;50.818;6.972;2022-08-03T11:58:04;7.15;;;1.60;;
15635;SDS011;7917;50.818;6.972;2022-08-03T12:00:31;4.40;;;1.40;;
15635;SDS011;7917;50.818;6.972;2022-08-03T12:03:03;3.30;;;1.30;;
15635;SDS011;7917;50.818;6.972;2022-08-03T12:05:41;3.80;;;1.65;;
15635;SDS011;7917;50.818;6.972;2022-08-03T12:08:13;1.80;;;1.42;;
15635;SDS011;7917;50.818;6.972;2022-08-03T12:10:47;2.75;;;1.40;;
15635;SDS011;7917;50.818;6.972;2022-08-03T12:13:20;4.72;;;1.30;;
15635;SDS011;7917;50.818;6.972;2022-08-03T12:15:56;4.82;;;1.40;;
15635;SDS011;7917;50.818;6.972;2022-08-03T12:18:29;2.17;;;1.23;;
15635;SDS011;7917;50.818;6.972;2022-08-03T12:21:03;2.95;;;1.60;;
15635;SDS011;7917;50.818;6.972;2022-08-03T12:23:39;5.47;;;1.30;;
15635;SDS011;7917;50.818;6.972;2022-08-03T12:26:10;3.33;;;1.45;;
15635;SDS011;7917;50.818;6.972;2022-08-03T12:28:46;5.45;;;1.90;;
15635;SDS011;7917;50.818;6.972;2022-08-03T12:31:16;2.42;;;1.60;;
15635;SDS011;7917;50.818;6.972;2022-08-03T12:33:57;4.50;;;1.60;;
15635;SDS011;7917;50.818;6.972;2022-08-03T12:36:33;8.77;;;2.03;;
15635;SDS011;7917;50.818;6.972;2022-08-03T12:39:09;3.83;;;1.23;;
15635;SDS011;7917;50.818;6.972;2022-08-03T12:41:39;2.92;;;1.70;;
15635;SDS011;7917;50.818;6.972;2022-08-03T12:44:09;2.53;;;1.40;;
15635;SDS011;7917;50.818;6.972;2022-08-03T12:46:40;3.20;;;1.40;;
15635;SDS011;7917;50.818;6.972;2022-08-03T12:49:14;2.15;;;1.30;;
15635;SDS011;7917;50.818;6.972;2022-08-03T12:54:36;5.35;;;1.65;;
15635;SDS011;7917;50.818;6.972;2022-08-03T12:57:05;4.50;;;1.50;;
15635;SDS011;7917;50.818;6.972;2022-08-03T12:59:37;4.90;;;1.35;;
15635;SDS011;7917;50.818;6.972;2022-08-03T13:02:14;1.48;;;1.27;;
15635;SDS011;7917;50.818;6.972;2022-08-03T13:04:46;6.70;;;1.30;;
15635;SDS011;7917;50.818;6.972;2022-08-03T13:07:29;4.03;;;1.60;;
15635;SDS011;7917;50.818;6.972;2022-08-03T13:13:00;3.83;;;1.33;;
15635;SDS011;7917;50.818;6.972;2022-08-03T13:15:33;3.30;;;1.48;;
15635;SDS011;7917;50.818;6.972;2022-08-03T13:18:01;3.28;;;1.38;;
15635;SDS011;7917;50.818;6.972;2022-08-03T13:20:30;2.60;;;1.30;;
15635;SDS011;7917;50.818;6.972;2022-08-03T13:22:58;2.58;;;1.30;;
15635;SDS011;7917;50.818;6.972;2022-08-03T13:25:28;4.13;;;1.27;;
15635;SDS011;7917;50.818;6.972;2022-08-03T13:27:55;3.25;;;1.20;;
15635;SDS011;7917;50.818;6.972;2022-08-03T13:30:24;4.05;;;1.10;;
15635;SDS011;7917;50.818;6.972;2022-08-03T13:32:52;2.28;;;1.17;;
15635;SDS011;7917;50.818;6.972;2022-08-03T13:35:22;3.42;;;1.13;;
15635;SDS011;7917;50.818;6.972;2022-08-03T13:37:50;3.78;;;1.33;;
15635;SDS011;7917;50.818;6.972;2022-08-03T13:40:19;4.10;;;1.33;;
15635;SDS011;7917;50.818;6.972;2022-08-03T13:42:50;3.30;;;1.23;;
15635;SDS011;7917;50.818;6.972;2022-08-03T13:45:21;7.00;;;1.10;;
15635;SDS011;7917;50.818;6.972;2022-08-03T13:47:49;1.90;;;1.13;;
15635;SDS011;7917;50.818;6.972;2022-08-03T13:50:18;5.13;;;1.20;;
15635;SDS011;7917;50.818;6.972;2022-08-03T13:52:46;4.63;;;1.40;;
15635;SDS011;7917;50.818;6.972;2022-08-03T13:55:13;5.95;;;1.60;;
15635;SDS011;7917;50.818;6.972;2022-08-03T13:57:41;2.47;;;1.30;;
15635;SDS011;7917;50.818;6.972;2022-08-03T14:00:11;2.25;;;0.90;;
15635;SDS011;7917;50.818;6.972;2022-08-03T14:02:40;4.05;;;1.35;;
15635;SDS011;7917;50.818;6.972;2022-08-03T14:05:07;3.08;;;1.20;;
15635;SDS011;7917;50.818;6.972;2022-08-03T14:07:37;2.90;;;1.23;;
15635;SDS011;7917;50.818;6.972;2022-08-03T14:10:05;7.28;;;1.50;;
15635;SDS011;7917;50.818;6.972;2022-08-03T14:12:33;3.45;;;1.52;;
15635;SDS011;7917;50.818;6.972;2022-08-03T14:15:01;5.75;;;1.27;;
15635;SDS011;7917;50.818;6.972;2022-08-03T14:17:30;2.45;;;1.15;;
15635;SDS011;7917;50.818;6.972;2022-08-03T14:19:57;2.08;;;1.00;;
15635;SDS011;7917;50.818;6.972;2022-08-03T14:22:25;1.83;;;1.15;;
15635;SDS011;7917;50.818;6.972;2022-08-03T14:24:52;3.58;;;1.40;;
15635;SDS011;7917;50.818;6.972;2022-08-03T14:27:19;4.15;;;1.10;;
15635;SDS011;7917;50.818;6.972;2022-08-03T14:29:47;2.58;;;1.30;;
15635;SDS011;7917;50.818;6.972;2022-08-03T14:32:15;3.30;;;1.15;;
15635;SDS011;7917;50.818;6.972;2022-08-03T14:34:44;4.57;;;1.48;;
15635;SDS011;7917;50.818;6.972;2022-08-03T14:37:13;2.33;;;1.20;;
15635;SDS011;7917;50.818;6.972;2022-08-03T14:39:45;6.15;;;1.30;;
15635;SDS011;7917;50.818;6.972;2022-08-03T14:42:13;6.45;;;1.35;;
15635;SDS011;7917;50.818;6.972;2022-08-03T14:44:41;3.03;;;1.25;;
15635;SDS011;7917;50.818;6.972;2022-08-03T14:47:09;2.33;;;1.30;;
15635;SDS011;7917;50.818;6.972;2022-08-03T14:49:36;2.22;;;1.20;;
15635;SDS011;7917;50.818;6.972;2022-08-03T14:52:07;3.15;;;1.20;;
15635;SDS011;7917;50.818;6.972;2022-08-03T14:54:35;2.75;;;1.30;;
15635;SDS011;7917;50.818;6.972;2022-08-03T14:57:06;3.30;;;1.33;;
15635;SDS011;7917;50.818;6.972;2022-08-03T14:59:33;2.28;;;1.27;;
15635;SDS011;7917;50.818;6.972;2022-08-03T15:02:01;3.90;;;1.30;;
15635;SDS011;7917;50.818;6.972;2022-08-03T15:04:38;4.57;;;1.30;;
15635;SDS011;7917;50.818;6.972;2022-08-03T15:07:07;3.88;;;1.27;;
15635;SDS011;7917;50.818;6.972;2022-08-03T15:09:35;3.72;;;1.20;;
15635;SDS011;7917;50.818;6.972;2022-08-03T15:12:08;3.88;;;1.27;;
15635;SDS011;7917;50.818;6.972;2022-08-03T15:14:37;2.53;;;1.13;;
15635;SDS011;7917;50.818;6.972;2022-08-03T15:17:12;2.80;;;1.10;;
15635;SDS011;7917;50.818;6.972;2022-08-03T15:19:40;4.95;;;1.35;;
15635;SDS011;7917;50.818;6.972;2022-08-03T15:22:12;6.03;;;1.17;;
15635;SDS011;7917;50.818;6.972;2022-08-03T15:24:42;3.95;;;1.50;;
15635;SDS011;7917;50.818;6.972;2022-08-03T15:27:10;2.47;;;1.30;;
15635;SDS011;7917;50.818;6.972;2022-08-03T15:29:40;5.85;;;1.40;;
15635;SDS011;7917;50.818;6.972;2022-08-03T15:32:07;7.28;;;1.70;;
15635;SDS011;7917;50.818;6.972;2022-08-03T15:34:35;5.75;;;1.95;;